TimeEDT,TemperatureF,Dew PointF,Humidity,Sea Level PressureIn,VisibilityMPH,Wind Direction,Wind SpeedMPH,Gust SpeedMPH,PrecipitationIn,Events,Conditions,WindDirDegrees,DateUTC
12:53 AM,75.0,63.0,66,30.14,10.0,SW,10.4,-,N/A,,Clear,220,2013-08-26 04:53:00
1:53 AM,73.9,63.0,68,30.13,10.0,SW,9.2,-,N/A,,Clear,220,2013-08-26 05:53:00
2:53 AM,72.0,62.1,71,30.11,10.0,SW,6.9,-,N/A,,Clear,220,2013-08-26 06:53:00
3:53 AM,71.1,62.1,73,30.13,10.0,SSW,5.8,-,N/A,,Clear,210,2013-08-26 07:53:00
4:53 AM,68.0,62.1,81,30.12,10.0,SSW,4.6,-,N/A,,Clear,200,2013-08-26 08:53:00
5:53 AM,70.0,62.1,76,30.12,10.0,SSW,5.8,-,N/A,,Mostly Cloudy,210,2013-08-26 09:53:00
6:53 AM,71.1,62.1,73,30.13,10.0,SW,10.4,-,N/A,,Overcast,220,2013-08-26 10:53:00
7:53 AM,71.1,62.1,73,30.14,10.0,SW,8.1,-,N/A,,Overcast,230,2013-08-26 11:53:00
8:53 AM,73.9,63.0,68,30.12,10.0,SW,11.5,-,N/A,,Overcast,230,2013-08-26 12:53:00
9:53 AM,77.0,64.0,64,30.12,10.0,WSW,11.5,-,N/A,,Mostly Cloudy,240,2013-08-26 13:53:00
10:53 AM,79.0,64.9,62,30.12,10.0,West,11.5,-,N/A,,Overcast,260,2013-08-26 14:53:00
11:53 AM,81.0,64.9,58,30.11,10.0,West,13.8,-,N/A,,Overcast,260,2013-08-26 15:53:00
12:53 PM,80.1,66.0,62,30.08,10.0,WSW,16.1,-,0.00,,Overcast,250,2013-08-26 16:53:00
1:53 PM,79.0,66.9,66,30.04,10.0,SW,15.0,-,N/A,,Overcast,220,2013-08-26 17:53:00
2:53 PM,80.1,66.9,64,30.05,9.0,WSW,12.7,-,N/A,,Overcast,250,2013-08-26 18:53:00
3:53 PM,81.0,66.9,62,30.04,9.0,WSW,10.4,-,N/A,,Overcast,250,2013-08-26 19:53:00
4:53 PM,82.9,68.0,60,30.03,9.0,WSW,10.4,-,N/A,,Mostly Cloudy,250,2013-08-26 20:53:00
5:53 PM,82.9,68.0,60,30.03,9.0,WSW,13.8,-,N/A,,Mostly Cloudy,250,2013-08-26 21:53:00
6:53 PM,82.9,68.0,60,30.01,9.0,WSW,12.7,-,N/A,,Mostly Cloudy,250,2013-08-26 22:53:00
7:53 PM,82.0,69.1,65,30.00,8.0,WSW,4.6,-,N/A,,Mostly Cloudy,240,2013-08-26 23:53:00
8:53 PM,78.1,70.0,76,30.00,9.0,East,3.5,-,N/A,,Mostly Cloudy,90,2013-08-27 00:53:00
9:53 PM,78.1,69.1,74,30.00,8.0,Calm,Calm,-,N/A,,Partly Cloudy,0,2013-08-27 01:53:00
10:53 PM,77.0,69.1,76,29.99,7.0,SW,4.6,-,N/A,,Clear,230,2013-08-27 02:53:00
11:53 PM,78.1,69.1,74,29.98,8.0,WSW,10.4,-,N/A,,Clear,250,2013-08-27 03:53:00